Aviation Digital Data Service (ADDS)

Output produced by METARs form (2320 UTC 24 May 2018)
found at http://aviationweather.gov/adds/metars/
 
KLBE 242320Z 2500/2524 VRB03KT P6SM SKC